Time;durP1;ratioP1;P1;durP2;ratioP2;P2;SDS_P1;SDS_P2;PMS_P1;PMS_P2;Temp;Humidity;BMP_temperature;BMP_pressure;BME280_temperature;BME280_humidity;BME280_pressure;Samples;Min_cycle;Max_cycle;Signal;HPM_P1;HPM_P2
2023/08/15 00:02:21;;;;;;;7.43;2.47;;;;;;;24.20;55.92;101318.63;5070107;28;20449;-44
2023/08/15 00:04:47;;;;;;;6.03;2.28;;;;;;;24.10;56.74;101317.16;5071499;28;20432;-48
2023/08/15 00:07:12;;;;;;;7.60;2.30;;;;;;;24.08;56.54;101325.25;5071227;28;20056;-44
2023/08/15 00:09:37;;;;;;;5.22;2.17;;;;;;;24.09;56.31;101326.09;5070858;28;20718;-45
2023/08/15 00:12:03;;;;;;;7.20;2.38;;;;;;;24.08;56.32;101327.91;5070456;28;20495;-44
2023/08/15 00:14:28;;;;;;;8.93;2.55;;;;;;;23.95;57.17;101315.94;5071232;28;20611;-44
2023/08/15 00:16:54;;;;;;;8.35;2.70;;;;;;;23.73;57.83;101317.56;5073538;28;20139;-46
2023/08/15 00:19:19;;;;;;;8.77;2.90;;;;;;;23.94;56.93;101308.84;5071452;28;20036;-44
2023/08/15 00:21:44;;;;;;;6.93;2.50;;;;;;;24.01;56.50;101318.38;5071940;28;20043;-43
2023/08/15 00:24:10;;;;;;;7.22;2.60;;;;;;;24.07;56.20;101310.16;5070242;28;20406;-45
2023/08/15 00:26:35;;;;;;;7.90;2.70;;;;;;;24.03;56.34;101313.84;5071280;28;20067;-45
2023/08/15 00:29:01;;;;;;;6.10;2.65;;;;;;;23.92;57.00;101318.69;5071434;28;20185;-44
2023/08/15 00:31:26;;;;;;;7.47;2.60;;;;;;;23.90;57.32;101319.69;5071411;28;20028;-46
2023/08/15 00:33:51;;;;;;;7.13;2.53;;;;;;;23.98;57.31;101322.91;5070323;28;20037;-48
2023/08/15 00:36:17;;;;;;;7.95;2.55;;;;;;;23.79;57.71;101330.66;5069413;28;20036;-43
2023/08/15 00:38:43;;;;;;;8.05;2.90;;;;;;;23.74;58.24;101329.97;5072645;28;20564;-46
2023/08/15 00:41:09;;;;;;;10.23;3.08;;;;;;;23.74;58.29;101340.63;5071373;28;20115;-49
2023/08/15 00:43:35;;;;;;;8.48;2.88;;;;;;;23.78;58.34;101329.84;5071021;28;20086;-50
2023/08/15 00:46:03;;;;;;;7.43;2.35;;;;;;;23.76;58.32;101331.66;5069796;28;20035;-45
2023/08/15 00:48:30;;;;;;;7.55;2.65;;;;;;;23.70;58.91;101331.88;5051649;28;20053;-47
2023/08/15 00:50:56;;;;;;;10.82;2.67;;;;;;;23.67;59.15;101329.28;5053717;28;20037;-46
2023/08/15 00:53:22;;;;;;;7.65;2.65;;;;;;;23.62;59.51;101328.59;5078437;28;20498;-52
2023/08/15 00:55:48;;;;;;;14.70;2.60;;;;;;;23.60;59.54;101334.91;5083688;28;20059;-47
2023/08/15 00:58:15;;;;;;;10.63;2.88;;;;;;;23.29;62.33;101330.53;5078551;28;20025;-46
2023/08/15 01:00:42;;;;;;;7.10;2.45;;;;;;;23.46;61.61;101335.31;5052815;28;20031;-45
2023/08/15 01:03:08;;;;;;;5.63;2.40;;;;;;;23.52;61.17;101342.25;5070215;28;20114;-45
2023/08/15 01:05:34;;;;;;;8.43;2.70;;;;;;;23.49;61.18;101343.22;5071809;28;20037;-45
2023/08/15 01:08:00;;;;;;;8.25;2.70;;;;;;;23.40;62.53;101336.38;5070896;28;20498;-46
2023/08/15 01:10:26;;;;;;;6.78;2.80;;;;;;;23.42;61.98;101331.84;5071042;28;20119;-46
2023/08/15 01:13:12;;;;;;;8.05;2.53;;;;;;;23.42;62.27;101336.34;5055591;28;20041;-44
2023/08/15 01:15:44;;;;;;;8.80;2.75;;;;;;;23.35;63.20;101326.81;5053554;28;20423;-45
2023/08/15 01:18:19;;;;;;;10.73;2.90;;;;;;;23.12;64.69;101329.31;5048794;28;20029;-44
2023/08/15 01:20:46;;;;;;;7.57;2.47;;;;;;;23.20;64.71;101319.31;5051939;28;20107;-45
2023/08/15 01:23:16;;;;;;;10.05;2.88;;;;;;;23.04;64.91;101311.81;5052362;28;20029;-44
2023/08/15 01:25:42;;;;;;;8.50;2.78;;;;;;;23.02;65.67;101318.09;5053279;28;20033;-48
2023/08/15 01:28:12;;;;;;;7.00;2.35;;;;;;;23.13;64.98;101304.44;5052886;28;20116;-44
2023/08/15 01:30:48;;;;;;;6.57;2.38;;;;;;;23.06;65.28;101315.28;5052471;28;20068;-45
2023/08/15 01:33:26;;;;;;;7.60;2.30;;;;;;;22.90;65.82;101314.03;5051621;28;20037;-45
2023/08/15 01:36:00;;;;;;;10.05;2.60;;;;;;;23.00;66.00;101328.78;5052556;28;20045;-47
2023/08/15 01:38:35;;;;;;;5.80;2.55;;;;;;;23.02;66.11;101331.38;5051870;28;20116;-48
2023/08/15 01:41:03;;;;;;;6.75;2.20;;;;;;;23.02;66.11;101339.38;5052067;28;20469;-45
2023/08/15 01:43:30;;;;;;;7.47;2.50;;;;;;;23.02;66.00;101326.06;5071327;28;20033;-45
2023/08/15 01:45:56;;;;;;;7.63;2.40;;;;;;;23.01;66.76;101332.31;5072017;28;20090;-47
2023/08/15 01:48:21;;;;;;;7.18;2.30;;;;;;;23.00;66.62;101328.78;5071451;28;20033;-50
2023/08/15 01:50:47;;;;;;;6.35;2.22;;;;;;;22.98;67.00;101332.41;5071908;28;20090;-45
2023/08/15 01:53:12;;;;;;;6.13;1.90;;;;;;;23.01;66.87;101338.50;5071142;28;20047;-48
2023/08/15 01:55:37;;;;;;;6.78;2.40;;;;;;;22.97;67.42;101335.97;5070891;28;20128;-45
2023/08/15 01:58:03;;;;;;;8.15;2.70;;;;;;;22.78;68.72;101337.44;5070905;28;20037;-48
2023/08/15 02:00:28;;;;;;;7.10;2.47;;;;;;;23.02;68.39;101339.38;5070310;28;20036;-50
2023/08/15 02:02:53;;;;;;;6.45;2.30;;;;;;;23.09;67.69;101340.94;5071914;28;20067;-46
2023/08/15 02:05:19;;;;;;;10.07;2.83;;;;;;;22.97;68.72;101343.97;5070660;28;20063;-49
2023/08/15 02:07:44;;;;;;;8.90;2.78;;;;;;;22.86;69.49;101341.63;5071920;28;20041;-46
2023/08/15 02:10:09;;;;;;;7.72;2.70;;;;;;;22.86;69.93;101348.72;5070757;28;20036;-44
2023/08/15 02:12:35;;;;;;;12.07;2.85;;;;;;;23.04;69.47;101345.53;5071812;28;20058;-50
2023/08/15 02:15:01;;;;;;;10.40;2.55;;;;;;;23.10;68.81;101337.34;5070098;28;20040;-44
2023/08/15 02:17:27;;;;;;;9.75;2.67;;;;;;;23.18;68.39;101342.41;5070989;28;20024;-48
2023/08/15 02:19:52;;;;;;;9.32;2.70;;;;;;;23.14;68.81;101346.09;5071403;28;20121;-44
2023/08/15 02:22:17;;;;;;;8.02;2.72;;;;;;;23.14;68.90;101343.44;5070753;28;20085;-50
2023/08/15 02:24:42;;;;;;;8.13;2.72;;;;;;;23.19;68.42;101342.38;5070680;28;20487;-47
2023/08/15 02:27:08;;;;;;;7.78;2.80;;;;;;;23.10;69.12;101339.13;5070842;28;20071;-43
2023/08/15 02:29:33;;;;;;;6.72;3.05;;;;;;;22.95;69.73;101341.34;5071190;28;20029;-50
2023/08/15 02:31:59;;;;;;;8.68;2.78;;;;;;;22.92;70.46;101353.88;5071052;28;20032;-46
2023/08/15 02:34:24;;;;;;;8.27;3.00;;;;;;;22.89;70.66;101338.88;5070233;28;20036;-47
2023/08/15 02:36:49;;;;;;;8.75;2.83;;;;;;;22.86;70.70;101351.41;5070921;28;20097;-45
2023/08/15 02:39:16;;;;;;;11.32;3.20;;;;;;;22.89;70.24;101352.16;5070433;28;20114;-46
2023/08/15 02:41:42;;;;;;;7.63;2.80;;;;;;;22.89;70.33;101352.16;5071341;28;20024;-45
2023/08/15 02:44:07;;;;;;;7.38;2.75;;;;;;;22.91;70.06;101355.66;5070217;28;20037;-43
2023/08/15 02:46:32;;;;;;;6.25;2.42;;;;;;;22.86;70.20;101354.06;5071250;28;20035;-47
2023/08/15 02:48:58;;;;;;;7.68;2.45;;;;;;;22.84;69.66;101366.50;5071062;28;20379;-49
2023/08/15 02:51:24;;;;;;;5.78;2.60;;;;;;;22.74;70.08;101373.91;5070260;28;20116;-48
2023/08/15 02:53:49;;;;;;;6.35;2.30;;;;;;;22.70;70.40;101374.84;5070372;28;20052;-46
2023/08/15 02:56:15;;;;;;;6.43;2.47;;;;;;;22.69;70.19;101378.41;5070584;28;20533;-49
2023/08/15 02:58:41;;;;;;;5.55;2.30;;;;;;;22.65;70.21;101374.09;5070370;28;20113;-48
2023/08/15 03:01:06;;;;;;;7.82;2.65;;;;;;;22.63;70.87;101382.13;5070282;28;20066;-48
2023/08/15 03:03:32;;;;;;;5.93;2.30;;;;;;;22.60;70.97;101382.22;5070007;28;20123;-47
2023/08/15 03:06:01;;;;;;;7.13;2.38;;;;;;;22.60;71.07;101384.00;5070321;28;20036;-47
2023/08/15 03:08:26;;;;;;;10.13;2.30;;;;;;;22.58;71.10;101373.41;5069953;28;20044;-46
2023/08/15 03:10:53;;;;;;;7.53;2.65;;;;;;;22.51;71.29;101377.16;5070366;28;20029;-45
2023/08/15 03:13:19;;;;;;;5.68;2.30;;;;;;;22.47;72.07;101382.59;5069665;28;20047;-45
2023/08/15 03:15:52;;;;;;;7.13;2.60;;;;;;;22.49;71.63;101380.78;5070286;28;20028;-46
2023/08/15 03:18:17;;;;;;;6.27;2.60;;;;;;;22.46;71.60;101387.03;5069888;28;20039;-44
2023/08/15 03:20:43;;;;;;;9.68;2.72;;;;;;;22.31;73.17;101387.47;5070337;28;20283;-46
2023/08/15 03:23:08;;;;;;;7.10;2.58;;;;;;;22.27;73.78;101394.63;5068543;28;20036;-47
2023/08/15 03:25:33;;;;;;;8.32;3.03;;;;;;;22.26;74.05;101389.38;5069839;28;20036;-49
2023/08/15 03:27:59;;;;;;;7.15;2.67;;;;;;;22.39;73.30;101396.09;5070438;28;20044;-44
2023/08/15 03:30:25;;;;;;;8.68;2.70;;;;;;;22.38;73.16;101381.09;5070183;28;20028;-50
2023/08/15 03:32:50;;;;;;;7.20;2.95;;;;;;;22.38;73.52;101386.41;5052990;28;20402;-47
2023/08/15 03:35:16;;;;;;;8.45;2.85;;;;;;;22.40;73.21;101386.31;5070402;28;20025;-46
2023/08/15 03:37:41;;;;;;;9.30;2.88;;;;;;;22.36;74.12;101392.66;5080119;28;20067;-48
2023/08/15 03:40:08;;;;;;;10.35;3.30;;;;;;;22.35;74.32;101398.88;5084522;28;20597;-51
2023/08/15 03:42:34;;;;;;;5.80;2.47;;;;;;;22.44;73.79;101393.31;5078448;28;20047;-44
2023/08/15 03:44:59;;;;;;;7.20;2.50;;;;;;;22.48;73.47;101397.63;5071247;28;20028;-48
2023/08/15 03:47:24;;;;;;;6.28;2.25;;;;;;;22.47;73.15;101396.75;5068662;28;20166;-48
2023/08/15 03:49:50;;;;;;;7.45;2.67;;;;;;;22.34;74.18;101418.38;5070238;28;20083;-46
2023/08/15 03:52:15;;;;;;;9.23;2.60;;;;;;;22.43;73.66;101410.16;5069612;28;20032;-50
2023/08/15 03:54:40;;;;;;;8.45;2.55;;;;;;;22.45;73.90;101416.28;5069644;28;20048;-45
2023/08/15 03:57:06;;;;;;;6.85;2.40;;;;;;;22.36;74.44;101421.88;5069297;28;20061;-50
2023/08/15 03:59:31;;;;;;;9.25;2.55;;;;;;;22.24;75.21;101431.03;5069586;28;20120;-44
2023/08/15 04:01:56;;;;;;;6.47;2.33;;;;;;;22.35;74.57;101425.44;5070001;28;20458;-45
2023/08/15 04:04:22;;;;;;;8.80;2.60;;;;;;;22.40;74.73;101429.72;5068552;28;20433;-49
2023/08/15 04:06:47;;;;;;;6.25;2.00;;;;;;;22.48;73.88;101422.41;5069698;28;20434;-45
2023/08/15 04:09:12;;;;;;;6.18;2.13;;;;;;;22.47;74.25;101414.47;5068902;28;20087;-45
2023/08/15 04:11:38;;;;;;;11.15;2.30;;;;;;;22.37;74.70;101408.56;5068721;28;20043;-46
2023/08/15 04:14:03;;;;;;;8.48;2.08;;;;;;;22.45;74.73;101417.16;5068739;28;20072;-47
2023/08/15 04:16:28;;;;;;;7.38;2.30;;;;;;;22.44;74.43;101418.09;5068913;28;20040;-48
2023/08/15 04:18:54;;;;;;;8.05;2.40;;;;;;;22.50;74.47;101414.41;5069561;28;20047;-45
2023/08/15 04:21:19;;;;;;;6.35;2.50;;;;;;;22.56;74.07;101409.81;5067395;28;20105;-47
2023/08/15 04:23:44;;;;;;;11.18;2.75;;;;;;;22.36;74.63;101413.91;5068930;28;20045;-44
2023/08/15 04:26:10;;;;;;;10.60;2.38;;;;;;;22.42;73.96;101406.66;5072081;28;20029;-44
2023/08/15 04:28:35;;;;;;;8.13;2.53;;;;;;;22.27;74.94;101407.03;5073989;28;20093;-47
2023/08/15 04:31:00;;;;;;;6.93;2.28;;;;;;;22.34;74.72;101405.97;5074151;28;20433;-44
2023/08/15 04:33:26;;;;;;;7.45;2.50;;;;;;;22.37;74.93;101403.25;5068555;28;20033;-44
2023/08/15 04:35:51;;;;;;;9.23;2.35;;;;;;;22.27;75.23;101393.75;5069763;28;20067;-48
2023/08/15 04:38:16;;;;;;;6.82;2.38;;;;;;;22.39;74.93;101395.22;5070409;28;20060;-45
2023/08/15 04:40:43;;;;;;;8.65;2.70;;;;;;;22.32;74.70;101393.66;5073286;28;20036;-45
2023/08/15 04:43:09;;;;;;;10.80;2.58;;;;;;;22.28;75.50;101400.81;5072765;28;20068;-55
2023/08/15 04:45:40;;;;;;;10.88;2.70;;;;;;;22.35;75.02;101402.41;5073080;28;20032;-47
2023/08/15 04:48:06;;;;;;;12.85;2.70;;;;;;;22.38;75.03;101391.72;5072880;28;20037;-47
2023/08/15 04:50:32;;;;;;;9.32;2.47;;;;;;;22.33;75.81;101396.25;5072862;28;20080;-50
2023/08/15 04:52:57;;;;;;;8.50;2.60;;;;;;;22.27;75.73;101402.59;5073384;28;20526;-46
2023/08/15 04:55:23;;;;;;;11.02;2.70;;;;;;;22.15;76.70;101404.69;5072247;28;20554;-48
2023/08/15 04:57:48;;;;;;;12.88;4.05;;;;;;;22.21;76.63;101408.06;5072034;28;20051;-44
2023/08/15 05:00:15;;;;;;;9.70;3.05;;;;;;;22.41;75.85;101409.34;5072626;28;20032;-44
2023/08/15 05:02:41;;;;;;;10.00;3.00;;;;;;;22.42;75.87;101417.28;5073068;28;20032;-46
2023/08/15 05:05:09;;;;;;;8.27;2.80;;;;;;;22.66;75.67;101411.28;5072316;28;20578;-45
2023/08/15 05:07:35;;;;;;;7.60;2.60;;;;;;;22.59;75.77;101412.38;5073078;28;20037;-43
2023/08/15 05:10:00;;;;;;;10.05;2.90;;;;;;;22.85;75.16;101414.31;5073060;28;20044;-44
2023/08/15 05:12:25;;;;;;;8.57;2.38;;;;;;;22.90;75.38;101427.47;5072313;28;20574;-46
2023/08/15 05:14:51;;;;;;;10.35;2.78;;;;;;;22.97;74.54;101432.59;5071986;28;20355;-46
2023/08/15 05:17:16;;;;;;;9.93;2.55;;;;;;;23.16;74.26;101429.38;5072285;28;20039;-45
2023/08/15 05:19:41;;;;;;;9.77;2.70;;;;;;;23.26;73.71;101426.41;5072222;28;20032;-49
2023/08/15 05:22:07;;;;;;;8.88;2.65;;;;;;;23.24;73.24;101433.53;5072233;28;20414;-43
2023/08/15 05:24:32;;;;;;;10.85;2.85;;;;;;;23.20;72.73;101437.22;5071624;28;20375;-44
2023/08/15 05:26:57;;;;;;;10.38;2.50;;;;;;;23.17;72.81;101428.47;5072469;28;20411;-46
2023/08/15 05:29:23;;;;;;;10.80;2.90;;;;;;;23.28;72.51;101445.84;5071689;28;20113;-49
2023/08/15 05:31:48;;;;;;;9.98;2.70;;;;;;;23.14;73.10;101447.16;5072340;28;20123;-48
2023/08/15 05:34:13;;;;;;;9.75;2.50;;;;;;;23.38;72.25;101452.63;5071167;28;20037;-45
2023/08/15 05:36:39;;;;;;;8.30;2.80;;;;;;;23.20;72.71;101450.53;5072370;28;20512;-45
2023/08/15 05:39:04;;;;;;;8.48;2.85;;;;;;;23.27;72.08;101452.09;5071822;28;20035;-51
2023/08/15 05:41:30;;;;;;;9.90;2.90;;;;;;;22.99;72.90;101451.16;5072004;28;20308;-44
2023/08/15 05:43:56;;;;;;;9.00;2.80;;;;;;;23.19;72.67;101467.41;5071837;28;20119;-46
2023/08/15 05:46:21;;;;;;;12.05;3.08;;;;;;;23.04;73.58;101458.09;5072017;28;20175;-44
2023/08/15 05:48:46;;;;;;;8.77;3.20;;;;;;;23.11;72.95;101452.59;5073663;28;20056;-50
2023/08/15 05:51:12;;;;;;;8.60;3.00;;;;;;;23.25;72.30;101455.69;5073162;28;20044;-42
2023/08/15 05:53:37;;;;;;;8.63;3.00;;;;;;;22.74;74.32;101458.97;5073143;28;20033;-44
2023/08/15 05:56:03;;;;;;;8.82;3.08;;;;;;;23.21;73.15;101470.00;5072509;28;20155;-45
2023/08/15 05:58:28;;;;;;;8.80;3.17;;;;;;;23.36;72.36;101465.09;5071824;28;20112;-44
2023/08/15 06:00:54;;;;;;;8.23;3.13;;;;;;;23.62;72.05;101461.69;5073067;28;20079;-48
2023/08/15 06:03:20;;;;;;;8.95;2.83;;;;;;;23.83;71.78;101454.81;5072892;28;20032;-46
2023/08/15 06:05:45;;;;;;;9.98;3.10;;;;;;;24.10;70.37;101459.22;5074369;28;20048;-43
2023/08/15 06:08:10;;;;;;;9.77;2.88;;;;;;;24.22;70.12;101472.16;5071421;28;20059;-44
2023/08/15 06:10:36;;;;;;;8.75;2.90;;;;;;;24.61;68.22;101475.28;5072216;28;20525;-50
2023/08/15 06:13:01;;;;;;;12.73;3.35;;;;;;;24.70;67.33;101483.88;5071777;28;20047;-43
2023/08/15 06:15:26;;;;;;;12.57;3.85;;;;;;;24.09;67.92;101491.25;5070723;28;20074;-44
2023/08/15 06:17:51;;;;;;;11.05;3.30;;;;;;;24.87;66.24;101494.81;5071998;28;20040;-45
2023/08/15 06:20:17;;;;;;;9.38;3.38;;;;;;;25.19;64.93;101493.69;5071623;28;20037;-45
2023/08/15 06:22:42;;;;;;;9.38;3.00;;;;;;;25.30;64.87;101502.16;5072758;28;20036;-49
2023/08/15 06:25:08;;;;;;;7.75;3.30;;;;;;;25.40;63.66;101506.19;5070901;28;20032;-46
2023/08/15 06:27:33;;;;;;;8.60;2.95;;;;;;;25.46;63.97;101513.97;5071454;28;20406;-48
2023/08/15 06:29:58;;;;;;;10.63;3.38;;;;;;;25.01;64.66;101517.41;5071031;28;20071;-48
2023/08/15 06:32:28;;;;;;;10.77;3.40;;;;;;;25.78;65.59;101523.44;5069079;28;20824;-44
2023/08/15 06:34:54;;;;;;;9.95;3.83;;;;;;;26.17;61.26;101534.31;5070421;28;20040;-47
2023/08/15 06:37:19;;;;;;;12.32;4.63;;;;;;;26.83;57.89;101527.09;5070855;28;20037;-49
2023/08/15 06:39:45;;;;;;;10.65;4.05;;;;;;;27.63;55.72;101531.50;5071016;28;20043;-44
2023/08/15 06:42:13;;;;;;;11.25;4.30;;;;;;;27.98;54.58;101535.19;5070625;28;20513;-45
2023/08/15 06:44:41;;;;;;;10.88;4.40;;;;;;;28.50;52.51;101533.50;5070137;28;20028;-46
2023/08/15 06:47:06;;;;;;;12.40;4.45;;;;;;;27.99;53.57;101539.63;5070388;28;20063;-48
2023/08/15 06:49:31;;;;;;;12.48;4.90;;;;;;;28.24;53.72;101532.09;5069052;28;20068;-52
2023/08/15 06:51:57;;;;;;;11.63;5.10;;;;;;;28.28;51.94;101543.56;5070662;28;20490;-47
2023/08/15 06:54:22;;;;;;;10.35;4.70;;;;;;;28.67;51.15;101535.31;5069806;28;20036;-47
2023/08/15 06:56:47;;;;;;;12.55;5.18;;;;;;;28.42;52.63;101541.03;5070741;28;20033;-41
2023/08/15 06:59:13;;;;;;;11.90;5.30;;;;;;;28.42;53.28;101543.72;5069814;28;20032;-44
2023/08/15 07:01:38;;;;;;;18.63;5.70;;;;;;;28.31;51.71;101534.47;5069693;28;20039;-51
2023/08/15 07:04:03;;;;;;;13.35;5.05;;;;;;;28.55;52.72;101543.97;5069757;28;20040;-45
2023/08/15 07:06:29;;;;;;;16.67;5.00;;;;;;;30.15;48.07;101542.47;5070454;28;20093;-48
2023/08/15 07:08:54;;;;;;;11.45;4.70;;;;;;;29.68;48.57;101537.06;5069690;28;20410;-48
2023/08/15 07:11:19;;;;;;;9.57;4.38;;;;;;;29.36;49.17;101529.91;5069856;28;20680;-45
2023/08/15 07:13:45;;;;;;;10.88;4.43;;;;;;;28.77;50.83;101538.44;5070029;28;20060;-48
2023/08/15 07:16:10;;;;;;;10.60;3.85;;;;;;;28.10;51.75;101541.75;5069788;28;20089;-47
2023/08/15 07:18:36;;;;;;;9.25;4.05;;;;;;;27.00;55.18;101541.53;5070414;28;20048;-48
2023/08/15 07:21:02;;;;;;;9.85;4.20;;;;;;;26.46;56.99;101558.09;5070152;28;20162;-53
2023/08/15 07:23:27;;;;;;;10.80;4.25;;;;;;;26.10;58.00;101557.78;5065298;28;20044;-52
2023/08/15 07:25:53;;;;;;;11.07;3.95;;;;;;;25.62;59.63;101551.66;5069766;28;20053;-48
2023/08/15 07:28:18;;;;;;;11.02;4.10;;;;;;;25.37;60.32;101557.88;5068391;28;20520;-48
2023/08/15 07:30:45;;;;;;;8.02;3.90;;;;;;;25.63;60.87;101553.41;5069334;28;20045;-50
2023/08/15 07:33:12;;;;;;;10.45;4.15;;;;;;;25.70;60.79;101555.78;5068748;28;20483;-48
2023/08/15 07:35:37;;;;;;;9.48;3.92;;;;;;;25.38;60.92;101564.09;5069255;28;20043;-49
2023/08/15 07:38:03;;;;;;;10.45;3.78;;;;;;;25.28;61.53;101560.03;5069314;28;20033;-44
2023/08/15 07:40:28;;;;;;;9.05;3.33;;;;;;;25.49;61.78;101567.28;5069019;28;20036;-49
2023/08/15 07:42:54;;;;;;;9.32;3.40;;;;;;;25.23;62.55;101562.00;5069455;28;20383;-47
2023/08/15 07:45:20;;;;;;;9.38;3.65;;;;;;;25.11;63.32;101563.31;5047071;28;20041;-45
2023/08/15 07:47:48;;;;;;;12.02;4.15;;;;;;;25.26;62.45;101564.56;5057607;28;20491;-45
2023/08/15 07:50:18;;;;;;;11.52;3.97;;;;;;;25.40;61.87;101572.94;5044580;28;20060;-47
2023/08/15 07:52:44;;;;;;;8.38;3.80;;;;;;;25.55;61.79;101577.72;5053213;28;20063;-47
2023/08/15 07:55:10;;;;;;;9.02;3.40;;;;;;;25.86;60.55;101577.41;5068078;28;20032;-50
2023/08/15 07:57:35;;;;;;;9.32;3.92;;;;;;;25.85;59.71;101575.72;5069761;28;20032;-46
2023/08/15 08:00:01;;;;;;;10.98;3.92;;;;;;;25.80;59.83;101573.19;5069178;28;20564;-42
2023/08/15 08:02:26;;;;;;;9.13;4.13;;;;;;;25.58;60.31;101582.09;5068651;28;20028;-46
2023/08/15 08:04:51;;;;;;;10.75;4.13;;;;;;;25.50;60.62;101585.00;5068940;28;20037;-47
2023/08/15 08:07:17;;;;;;;12.90;5.20;;;;;;;25.34;61.15;101587.38;5068546;28;20029;-52
2023/08/15 08:09:42;;;;;;;15.05;5.32;;;;;;;25.43;60.67;101600.38;5066954;28;20049;-48
2023/08/15 08:12:08;;;;;;;13.18;5.55;;;;;;;25.23;61.57;101594.03;5068791;28;20036;-49
2023/08/15 08:14:34;;;;;;;14.18;5.80;;;;;;;25.24;62.03;101593.13;5068636;28;20043;-48
2023/08/15 08:16:59;;;;;;;11.23;5.25;;;;;;;25.41;62.33;101594.25;5069262;28;20032;-53
2023/08/15 08:19:25;;;;;;;9.63;5.25;;;;;;;25.38;61.60;101598.81;5067425;28;20638;-46
2023/08/15 08:21:50;;;;;;;12.85;5.50;;;;;;;25.60;62.38;101593.59;5067185;28;20040;-47
2023/08/15 08:24:15;;;;;;;11.98;5.00;;;;;;;25.39;62.77;101598.75;5068068;28;20035;-45
2023/08/15 08:26:41;;;;;;;13.13;5.20;;;;;;;25.50;62.40;101602.81;5069054;28;20111;-49
2023/08/15 08:29:06;;;;;;;8.68;4.43;;;;;;;25.55;61.71;101604.41;5068913;28;20039;-49
2023/08/15 08:31:31;;;;;;;12.95;5.20;;;;;;;24.85;65.06;101606.00;5068771;28;20029;-49
2023/08/15 08:33:57;;;;;;;14.85;6.10;;;;;;;24.36;67.16;101618.28;5068395;28;20048;-46
2023/08/15 08:36:22;;;;;;;10.82;5.07;;;;;;;24.34;68.46;101620.13;5067960;28;20028;-44
2023/08/15 08:38:47;;;;;;;9.35;4.43;;;;;;;24.72;67.21;101624.22;5068629;28;20109;-47
2023/08/15 08:41:13;;;;;;;9.13;4.90;;;;;;;24.14;69.35;101618.06;5067521;28;20506;-47
2023/08/15 08:43:39;;;;;;;6.32;3.33;;;;;;;24.39;66.31;101623.53;5068490;28;20048;-50
2023/08/15 08:46:07;;;;;;;6.35;3.28;;;;;;;24.98;65.55;101624.25;5068750;28;20051;-51
2023/08/15 08:48:32;;;;;;;4.18;2.50;;;;;;;24.92;65.41;101618.25;5067741;28;20155;-45
2023/08/15 08:50:58;;;;;;;5.10;2.60;;;;;;;25.37;63.44;101627.28;5071043;28;20510;-46
2023/08/15 08:53:23;;;;;;;4.32;2.30;;;;;;;25.25;63.41;101633.06;5071286;28;20048;-49
2023/08/15 08:55:50;;;;;;;4.88;2.60;;;;;;;25.09;63.11;101633.66;5068352;28;20035;-48
2023/08/15 08:58:16;;;;;;;4.35;2.33;;;;;;;25.55;61.24;101631.13;5066929;28;20102;-49
2023/08/15 09:00:41;;;;;;;5.05;2.03;;;;;;;25.49;60.95;101633.13;5068938;28;20025;-46
2023/08/15 09:03:08;;;;;;;5.82;2.40;;;;;;;25.71;62.12;101629.66;5068290;28;20073;-46
2023/08/15 09:05:33;;;;;;;4.18;2.38;;;;;;;26.10;59.06;101634.41;5068073;28;20033;-45
2023/08/15 09:08:00;;;;;;;6.45;2.55;;;;;;;25.86;59.98;101638.88;5069048;28;20039;-44
2023/08/15 09:10:25;;;;;;;3.75;2.00;;;;;;;26.52;57.63;101632.72;5068330;28;20031;-46
2023/08/15 09:12:57;;;;;;;5.35;2.30;;;;;;;25.70;60.57;101637.72;5068713;28;20123;-46
2023/08/15 09:15:23;;;;;;;5.30;2.13;;;;;;;25.64;61.20;101633.47;5068726;28;20025;-48
2023/08/15 09:17:49;;;;;;;3.97;2.20;;;;;;;25.48;62.36;101642.06;5070315;28;20376;-46
2023/08/15 09:20:16;;;;;;;5.70;2.80;;;;;;;24.77;66.27;101648.94;5068325;28;20547;-46
2023/08/15 09:22:46;;;;;;;3.72;1.92;;;;;;;24.35;67.85;101645.84;5068868;28;20040;-46
2023/08/15 09:25:17;;;;;;;4.72;2.10;;;;;;;24.60;68.29;101659.28;5070337;28;20032;-47
2023/08/15 09:27:43;;;;;;;2.80;1.83;;;;;;;25.03;67.52;101648.09;5071824;28;20093;-50
2023/08/15 09:30:11;;;;;;;4.97;1.80;;;;;;;24.80;66.71;101638.19;5071600;28;20037;-50
2023/08/15 09:32:41;;;;;;;2.75;1.65;;;;;;;25.21;66.17;101643.91;5072582;28;20207;-52
2023/08/15 09:35:18;;;;;;;2.40;1.55;;;;;;;25.28;67.91;101649.00;5070995;28;20045;-50
2023/08/15 09:37:47;;;;;;;2.25;1.35;;;;;;;25.59;64.48;101651.47;5072157;28;20406;-54
2023/08/15 09:40:22;;;;;;;2.22;1.20;;;;;;;25.94;63.63;101660.81;5069950;28;20707;-44
2023/08/15 09:42:47;;;;;;;1.63;0.90;;;;;;;26.22;60.23;101658.84;5072104;28;20037;-50
2023/08/15 09:45:14;;;;;;;2.97;1.10;;;;;;;25.61;63.29;101656.75;5070480;28;20132;-45
2023/08/15 09:47:41;;;;;;;3.05;1.13;;;;;;;25.51;65.57;101665.97;5071800;28;20033;-45
2023/08/15 09:50:12;;;;;;;1.75;1.10;;;;;;;25.75;64.38;101662.44;5071514;28;20035;-45
2023/08/15 09:52:42;;;;;;;2.38;1.20;;;;;;;25.42;64.99;101665.41;5071584;28;20047;-46
2023/08/15 09:55:12;;;;;;;2.58;1.40;;;;;;;25.08;65.31;101664.81;5070902;28;20043;-45
2023/08/15 09:57:39;;;;;;;2.78;1.60;;;;;;;25.20;66.25;101669.72;5071771;28;20060;-45
2023/08/15 10:00:09;;;;;;;2.75;1.70;;;;;;;25.90;62.05;101667.22;5071081;28;20032;-52
2023/08/15 10:02:43;;;;;;;3.67;1.75;;;;;;;25.53;62.99;101680.16;5071360;28;20115;-50
2023/08/15 10:05:08;;;;;;;;;;;;;;;25.96;60.42;101674.13;5071203;28;20028;-46
2023/08/15 10:07:34;;;;;;;4.32;1.50;;;;;;;25.66;61.94;101681.50;5071593;28;19927;-44
2023/08/15 10:10:03;;;;;;;4.15;1.60;;;;;;;25.69;61.66;101684.91;5071341;28;20041;-45
2023/08/15 10:12:29;;;;;;;4.45;1.70;;;;;;;26.19;60.10;101693.72;5070714;28;20339;-51
2023/08/15 10:14:56;;;;;;;3.15;1.70;;;;;;;25.83;60.43;101695.97;5070546;28;20036;-46
2023/08/15 10:17:24;;;;;;;3.85;1.75;;;;;;;26.10;60.27;101699.41;5070989;28;20078;-45
2023/08/15 10:19:49;;;;;;;7.45;2.17;;;;;;;25.70;61.35;101696.47;5071040;28;20441;-49
2023/08/15 10:22:19;;;;;;;4.70;2.03;;;;;;;25.54;62.07;101698.78;5070746;28;20062;-47
2023/08/15 10:24:45;;;;;;;3.97;1.83;;;;;;;25.65;61.71;101712.66;5070940;28;20119;-45
2023/08/15 10:27:11;;;;;;;4.38;1.90;;;;;;;25.67;61.05;101710.81;5070781;28;20123;-45
2023/08/15 10:29:56;;;;;;;4.93;1.73;;;;;;;25.77;61.19;101714.88;5069748;28;20060;-45
2023/08/15 10:32:26;;;;;;;3.83;1.80;;;;;;;25.76;61.15;101718.47;5071045;28;20033;-47
2023/08/15 10:34:54;;;;;;;5.15;1.90;;;;;;;25.55;63.38;101718.34;5070640;28;20041;-51
2023/08/15 10:37:30;;;;;;;4.15;1.90;;;;;;;25.80;62.61;101706.75;5070720;28;20043;-44
2023/08/15 10:40:10;;;;;;;6.38;2.00;;;;;;;25.72;62.42;101714.19;5071668;28;20195;-47
2023/08/15 10:43:02;;;;;;;5.20;1.83;;;;;;;25.76;62.47;101721.16;5070836;28;20040;-47
2023/08/15 10:45:31;;;;;;;6.97;1.80;;;;;;;25.65;61.08;101719.81;5068913;28;20032;-47
2023/08/15 10:47:57;;;;;;;3.90;1.60;;;;;;;25.79;59.95;101725.53;5070967;28;20531;-47
2023/08/15 10:50:23;;;;;;;6.13;1.55;;;;;;;25.10;61.38;101724.34;5070465;28;20555;-46
2023/08/15 10:53:03;;;;;;;5.97;1.60;;;;;;;25.45;59.43;101725.81;5070913;28;20040;-47
2023/08/15 10:55:30;;;;;;;4.82;1.50;;;;;;;25.59;58.79;101720.03;5069868;28;20494;-46
2023/08/15 10:57:58;;;;;;;4.30;1.73;;;;;;;25.75;59.38;101732.75;5069511;28;20041;-47
2023/08/15 11:00:23;;;;;;;5.45;1.80;;;;;;;25.68;59.07;101735.69;5070205;28;20494;-48
2023/08/15 11:02:53;;;;;;;4.13;2.00;;;;;;;25.72;58.26;101740.03;5070858;28;20048;-50
2023/08/15 11:05:41;;;;;;;5.30;1.95;;;;;;;25.62;59.49;101741.25;5069716;28;20039;-46
2023/08/15 11:08:19;;;;;;;6.63;1.80;;;;;;;25.55;59.03;101748.59;5070688;28;20037;-46
2023/08/15 11:10:48;;;;;;;7.97;1.80;;;;;;;25.31;59.83;101744.13;5071539;28;20561;-42
2023/08/15 11:13:17;;;;;;;5.78;1.70;;;;;;;25.43;59.25;101743.69;5071562;28;20049;-48
2023/08/15 11:15:46;;;;;;;5.15;1.70;;;;;;;26.27;55.89;101735.34;5071945;28;20081;-46
2023/08/15 11:18:20;;;;;;;4.50;1.75;;;;;;;26.09;57.04;101737.75;5070712;28;20029;-46
2023/08/15 11:20:46;;;;;;;3.92;1.80;;;;;;;26.78;55.00;101743.13;5070453;28;20029;-46
2023/08/15 11:23:11;;;;;;;6.22;1.83;;;;;;;26.60;55.38;101734.91;5070528;28;20036;-43